createdAt,value
2017-11-18T00:01:37.260Z,5.80
2017-11-18T00:04:04.776Z,5.80
2017-11-18T00:06:32.270Z,5.80
2017-11-18T00:08:59.752Z,5.80
2017-11-18T00:11:28.044Z,6.00
2017-11-18T00:13:56.293Z,6.00
2017-11-18T00:16:23.778Z,6.00
2017-11-18T00:18:52.016Z,6.10
2017-11-18T00:21:19.515Z,6.10
2017-11-18T00:23:47.781Z,6.10
2017-11-18T00:26:15.277Z,6.10
2017-11-18T00:28:42.766Z,6.20
2017-11-18T00:31:10.241Z,6.20
2017-11-18T00:33:37.720Z,6.20
2017-11-18T00:36:06.973Z,6.10
2017-11-18T00:38:34.485Z,6.10
2017-11-18T00:41:02.078Z,6.20
2017-11-18T00:43:29.569Z,6.10
2017-11-18T00:45:57.043Z,6.10
2017-11-18T00:48:24.536Z,6.10
2017-11-18T00:50:52.020Z,6.10
2017-11-18T00:53:19.497Z,6.10
2017-11-18T00:55:46.984Z,6.10
2017-11-18T00:58:14.454Z,6.20
2017-11-18T01:00:42.705Z,6.20
2017-11-18T01:03:10.178Z,6.20
2017-11-18T01:05:37.663Z,6.20
2017-11-18T01:08:05.189Z,6.10
2017-11-18T01:10:32.679Z,6.10
2017-11-18T01:13:00.915Z,6.10
2017-11-18T01:15:28.492Z,6.10
2017-11-18T01:17:55.976Z,6.10
2017-11-18T01:20:23.461Z,6.10
2017-11-18T01:22:50.953Z,6.10
2017-11-18T01:25:18.424Z,6.10
2017-11-18T01:27:45.989Z,6.10
2017-11-18T01:30:14.224Z,6.00
2017-11-18T01:32:41.722Z,6.10
2017-11-18T01:35:09.960Z,6.00
2017-11-18T01:37:37.429Z,6.00
2017-11-18T01:40:04.917Z,6.00
2017-11-18T01:42:33.170Z,6.10
2017-11-18T01:45:00.688Z,6.10
2017-11-18T01:47:28.173Z,6.10
2017-11-18T01:49:55.657Z,6.10
2017-11-18T01:52:23.128Z,6.10
2017-11-18T01:54:51.379Z,6.00
2017-11-18T01:57:18.853Z,6.00
2017-11-18T01:59:47.103Z,6.00
2017-11-18T02:02:14.594Z,6.00
2017-11-18T02:04:42.828Z,6.00
2017-11-18T02:07:10.318Z,6.00
2017-11-18T02:09:37.781Z,6.10
2017-11-18T02:12:06.052Z,6.00
2017-11-18T02:14:33.528Z,6.00
2017-11-18T02:17:01.776Z,6.00
2017-11-18T02:19:29.246Z,6.00
2017-11-18T02:21:56.817Z,6.00
2017-11-18T02:24:30.658Z,6.00
2017-11-18T02:26:58.149Z,6.00
2017-11-18T02:29:25.616Z,6.10
2017-11-18T02:31:53.094Z,6.00
2017-11-18T02:34:21.353Z,6.00
2017-11-18T02:36:48.835Z,6.00
2017-11-18T02:39:17.104Z,6.00
2017-11-18T02:41:45.346Z,6.00
2017-11-18T02:44:12.849Z,6.00
2017-11-18T02:46:41.081Z,6.00
2017-11-18T02:49:08.577Z,6.00
2017-11-18T02:51:36.817Z,6.00
2017-11-18T02:54:04.288Z,5.90
2017-11-18T02:56:31.773Z,5.90
2017-11-18T02:59:00.009Z,5.90
2017-11-18T03:01:27.493Z,5.90
2017-11-18T03:03:55.059Z,6.00
2017-11-18T03:06:24.327Z,5.80
2017-11-18T03:08:51.797Z,5.80
2017-11-18T03:11:19.293Z,5.80
2017-11-18T03:13:47.524Z,5.70
2017-11-18T03:16:14.997Z,5.60
2017-11-18T15:33:40.749Z,7.70
2017-11-18T15:36:23.112Z,7.70
2017-11-18T15:38:50.614Z,7.80
2017-11-18T15:41:18.080Z,7.80
2017-11-18T15:43:47.185Z,7.90
2017-11-18T15:46:15.256Z,7.80
2017-11-18T15:48:48.307Z,7.80
2017-11-18T15:51:18.406Z,7.90
2017-11-18T15:54:02.591Z,7.90
2017-11-18T15:56:30.080Z,7.90
2017-11-18T15:59:00.208Z,7.80
2017-11-18T16:01:33.389Z,7.70
2017-11-18T16:04:05.489Z,7.80
2017-11-18T16:06:36.384Z,7.80
2017-11-18T16:09:03.866Z,7.80
2017-11-18T16:11:31.346Z,7.70
2017-11-18T16:13:59.583Z,7.80
2017-11-18T16:16:27.124Z,7.70
2017-11-18T16:18:54.616Z,7.80
2017-11-18T16:21:22.153Z,7.80
2017-11-18T16:23:51.141Z,7.80
2017-11-18T16:26:18.616Z,7.80
2017-11-18T16:28:46.113Z,7.80
2017-11-18T16:31:13.623Z,7.80
2017-11-18T16:33:41.114Z,7.80
2017-11-18T16:36:09.385Z,7.80
2017-11-18T16:38:37.687Z,7.80
2017-11-18T16:41:05.188Z,7.80
2017-11-18T16:43:32.685Z,7.80
2017-11-18T16:46:00.921Z,7.80
2017-11-18T16:48:28.393Z,7.80
2017-11-18T16:50:55.893Z,7.90
2017-11-18T16:53:23.389Z,7.90
2017-11-18T16:55:50.923Z,7.90
2017-11-18T16:58:18.453Z,7.90
2017-11-18T17:00:46.704Z,8.00
2017-11-18T17:03:14.178Z,7.90
2017-11-18T17:05:41.644Z,8.00
2017-11-18T17:08:09.892Z,8.00
2017-11-18T17:10:37.358Z,8.00
2017-11-18T17:13:04.836Z,8.00
2017-11-18T17:15:33.064Z,8.10
2017-11-18T17:18:00.556Z,8.10
2017-11-18T17:20:28.025Z,8.10
2017-11-18T17:22:55.494Z,8.10
2017-11-18T17:25:23.749Z,8.10
2017-11-18T17:27:51.221Z,8.10
2017-11-18T17:30:19.476Z,8.10
2017-11-18T17:32:46.976Z,8.00
2017-11-18T17:35:14.479Z,8.00
2017-11-18T17:37:41.971Z,8.10
2017-11-18T17:40:10.212Z,8.10
2017-11-18T17:42:37.691Z,8.10
2017-11-18T17:45:05.161Z,8.10
2017-11-18T17:47:34.320Z,8.10
2017-11-18T17:50:01.780Z,8.10
2017-11-18T17:52:29.274Z,8.10
2017-11-18T17:54:57.516Z,8.20
2017-11-18T17:57:24.987Z,8.20
2017-11-18T17:59:52.465Z,8.20
2017-11-18T18:02:20.702Z,8.10
2017-11-18T18:04:48.184Z,8.00
2017-11-18T18:07:15.661Z,8.10
2017-11-18T18:09:43.920Z,8.10
2017-11-18T18:12:11.384Z,8.10
2017-11-18T18:14:40.645Z,8.00
2017-11-18T18:17:08.159Z,8.00
2017-11-18T18:19:36.401Z,8.00
2017-11-18T18:22:03.908Z,8.00
2017-11-18T18:24:32.145Z,8.10
2017-11-18T18:26:59.635Z,8.00
2017-11-18T18:29:27.900Z,8.10
2017-11-18T18:31:56.175Z,8.10
2017-11-18T18:34:24.432Z,8.10
2017-11-18T18:36:51.895Z,8.10
2017-11-18T18:39:19.374Z,8.10
2017-11-18T18:41:47.640Z,8.20
2017-11-18T18:44:15.114Z,8.10
2017-11-18T18:46:43.365Z,8.40
2017-11-18T18:49:10.845Z,8.40
2017-11-18T18:51:39.152Z,8.30
2017-11-18T18:54:06.641Z,8.30
2017-11-18T18:56:34.135Z,8.40
2017-11-18T18:59:02.384Z,8.40
2017-11-18T19:01:29.876Z,8.40
2017-11-18T19:03:58.116Z,8.30
2017-11-18T19:06:25.621Z,8.30
2017-11-18T19:08:53.103Z,8.30
2017-11-18T19:11:20.592Z,8.30
2017-11-18T19:13:48.086Z,8.30
2017-11-18T19:16:16.328Z,8.30
2017-11-18T19:18:43.808Z,8.30
2017-11-18T19:21:13.106Z,8.40
2017-11-18T19:23:40.593Z,8.40
2017-11-18T19:26:08.092Z,8.40
2017-11-18T19:28:35.581Z,8.40
2017-11-18T19:31:03.824Z,8.40
2017-11-18T19:33:31.325Z,8.40
2017-11-18T19:35:59.588Z,8.40
2017-11-18T19:38:27.844Z,8.40
2017-11-18T19:40:55.337Z,8.40
2017-11-18T19:43:23.573Z,8.40
2017-11-18T19:45:51.071Z,8.40
2017-11-18T19:48:19.316Z,8.40
2017-11-18T19:50:46.806Z,8.40
2017-11-18T19:53:15.057Z,8.40
2017-11-18T19:55:42.584Z,8.30
2017-11-18T19:58:10.086Z,8.30
2017-11-18T20:00:38.363Z,8.30
2017-11-18T20:03:05.851Z,8.30
2017-11-18T20:05:33.322Z,8.30
2017-11-18T20:08:00.809Z,8.30
2017-11-18T20:10:28.321Z,8.20
2017-11-18T20:12:56.594Z,7.40
2017-11-18T20:15:24.834Z,7.20
2017-11-18T20:17:52.338Z,7.20
2017-11-18T20:20:19.824Z,6.90
2017-11-18T20:22:47.297Z,6.80
2017-11-18T20:25:14.773Z,6.80
2017-11-18T20:27:42.248Z,6.70
2017-11-18T20:30:10.525Z,6.60
2017-11-18T20:32:38.781Z,6.70
2017-11-18T20:35:06.281Z,6.60
2017-11-18T20:37:33.781Z,6.70
2017-11-18T20:40:01.251Z,6.70
2017-11-18T20:42:28.740Z,6.70
2017-11-18T20:44:56.984Z,6.70
2017-11-18T20:47:24.504Z,6.70
2017-11-18T20:49:51.975Z,6.70
2017-11-18T20:52:19.464Z,6.60
2017-11-18T20:54:46.936Z,6.60
2017-11-18T20:57:14.441Z,6.60
2017-11-18T20:59:41.929Z,6.70
2017-11-18T21:02:09.404Z,6.70
2017-11-18T21:04:36.902Z,6.60
2017-11-18T21:07:04.385Z,6.70
2017-11-18T21:09:32.907Z,6.60
2017-11-18T21:12:00.388Z,6.60
2017-11-18T21:14:27.896Z,6.70
2017-11-18T21:16:55.365Z,6.70
2017-11-18T21:19:22.864Z,6.70
2017-11-18T21:21:51.106Z,6.80
2017-11-18T21:24:18.580Z,6.80
2017-11-18T21:26:46.876Z,6.80
2017-11-18T21:29:14.329Z,6.80
2017-11-18T21:31:42.622Z,6.80
2017-11-18T21:34:10.106Z,6.80
2017-11-18T21:36:37.608Z,6.90
2017-11-18T21:39:05.100Z,6.90
2017-11-18T21:41:32.625Z,6.90
2017-11-18T21:44:00.194Z,6.90
2017-11-18T21:46:29.452Z,6.90
2017-11-18T21:48:56.947Z,6.90
2017-11-18T21:51:26.197Z,6.90
2017-11-18T21:53:53.692Z,6.90
2017-11-18T21:56:21.169Z,7.00
2017-11-18T22:00:08.740Z,6.90
2017-11-18T22:02:36.210Z,6.90
2017-11-18T22:05:03.701Z,6.90
2017-11-18T22:07:31.174Z,6.70
2017-11-18T22:09:58.750Z,6.70
2017-11-18T22:12:27.001Z,6.70
2017-11-18T22:14:54.489Z,6.70
2017-11-18T22:17:22.749Z,6.70
2017-11-18T22:19:52.075Z,6.80
2017-11-18T22:22:19.581Z,6.80
2017-11-18T22:24:47.058Z,6.90
2017-11-18T22:27:14.621Z,6.90
2017-11-18T22:29:42.089Z,6.90
2017-11-18T22:32:10.323Z,6.90
2017-11-18T22:34:37.820Z,6.90
2017-11-18T22:37:06.070Z,7.00
2017-11-18T22:39:33.551Z,6.90
2017-11-18T22:42:01.032Z,7.00
2017-11-18T22:44:28.565Z,7.00
2017-11-18T22:46:56.812Z,7.10
2017-11-18T22:49:24.290Z,7.00
2017-11-18T22:51:51.776Z,7.10
2017-11-18T22:54:20.009Z,7.00
2017-11-18T22:56:47.504Z,7.00
2017-11-18T22:59:15.752Z,7.10
2017-11-18T23:01:43.245Z,7.00
2017-11-18T23:04:11.493Z,7.10
2017-11-18T23:06:38.958Z,7.10
2017-11-18T23:09:06.440Z,7.10
2017-11-18T23:11:34.674Z,7.00
2017-11-18T23:14:02.169Z,7.00
2017-11-18T23:16:30.399Z,7.10
2017-11-18T23:18:57.889Z,7.00
2017-11-18T23:21:25.361Z,7.10
2017-11-18T23:23:53.623Z,7.20
2017-11-18T23:26:21.861Z,7.10
2017-11-18T23:28:49.341Z,7.10
2017-11-18T23:31:16.832Z,7.20
2017-11-18T23:33:45.073Z,7.20
2017-11-18T23:36:12.566Z,7.20
2017-11-18T23:38:40.813Z,7.30
2017-11-18T23:41:08.363Z,7.30
2017-11-18T23:43:35.832Z,7.30
2017-11-18T23:46:03.333Z,7.30
2017-11-18T23:48:30.818Z,7.30
2017-11-18T23:50:58.305Z,7.30
2017-11-18T23:53:25.805Z,7.30
2017-11-18T23:55:53.316Z,7.30
2017-11-18T23:58:20.800Z,7.30
